createdAt,value
2023-10-10T00:02:30.135Z,946.25
2023-10-10T00:05:03.569Z,934.95
2023-10-10T00:07:32.233Z,929.42
2023-10-10T00:10:01.225Z,943.63
2023-10-10T00:12:31.845Z,957.00
2023-10-10T00:15:01.158Z,923.75
2023-10-10T00:17:39.091Z,949.08
2023-10-10T00:20:18.753Z,963.00
2023-10-10T00:22:49.490Z,901.78
2023-10-10T00:25:20.422Z,934.60
2023-10-10T00:27:49.324Z,926.40
2023-10-10T00:30:18.426Z,945.10
2023-10-10T00:32:48.321Z,939.10
2023-10-10T00:35:18.871Z,938.20
2023-10-10T00:37:49.718Z,938.58
2023-10-10T00:40:30.643Z,934.47
2023-10-10T00:43:00.608Z,941.53
2023-10-10T00:45:36.985Z,946.30
2023-10-10T00:48:10.574Z,958.60
2023-10-10T00:50:41.673Z,954.75
2023-10-10T00:53:12.936Z,936.90
2023-10-10T00:55:41.768Z,950.25
2023-10-10T00:58:11.365Z,930.30
2023-10-10T01:00:46.008Z,938.22
2023-10-10T01:03:22.948Z,921.95
2023-10-10T01:05:54.703Z,927.53
2023-10-10T01:08:28.071Z,934.95
2023-10-10T01:11:03.517Z,914.95
2023-10-10T01:13:32.715Z,929.35
2023-10-10T01:16:05.340Z,897.95
2023-10-10T01:18:45.077Z,852.67
2023-10-10T01:21:20.707Z,867.22
2023-10-10T01:26:46.006Z,871.13
2023-10-10T01:29:26.566Z,872.72
2023-10-10T01:32:00.354Z,874.00
2023-10-10T01:34:44.740Z,853.28
2023-10-10T01:37:28.593Z,848.88
2023-10-10T01:40:15.550Z,860.40
2023-10-10T01:42:46.821Z,848.33
2023-10-10T01:45:20.269Z,865.60
2023-10-10T01:47:58.844Z,865.78
2023-10-10T01:50:28.980Z,854.85
2023-10-10T01:52:59.255Z,858.63
2023-10-10T01:55:28.069Z,851.58
2023-10-10T01:57:58.815Z,856.67
2023-10-10T02:00:28.585Z,837.83
2023-10-10T02:02:58.223Z,845.53
2023-10-10T02:05:43.557Z,837.17
2023-10-10T02:08:18.396Z,844.92
2023-10-10T02:10:50.971Z,846.90
2023-10-10T02:13:21.219Z,838.63
2023-10-10T02:15:49.953Z,835.53
2023-10-10T02:18:25.108Z,832.97
2023-10-10T02:20:54.306Z,845.92
2023-10-10T02:23:33.324Z,811.53
2023-10-10T02:26:04.562Z,830.72
2023-10-10T02:28:48.447Z,825.35
2023-10-10T02:31:17.988Z,838.35
2023-10-10T02:33:57.144Z,842.28
2023-10-10T02:36:32.892Z,848.42
2023-10-10T02:39:20.328Z,819.17
2023-10-10T02:42:00.747Z,793.90
2023-10-10T02:44:40.157Z,817.08
2023-10-10T02:47:13.445Z,800.10
2023-10-10T02:49:43.293Z,826.28
2023-10-10T02:52:18.852Z,807.45
2023-10-10T02:54:56.311Z,822.80
2023-10-10T02:57:35.455Z,826.92
2023-10-10T03:00:29.843Z,811.25
2023-10-10T03:03:04.383Z,804.60
2023-10-10T03:05:41.044Z,785.30
2023-10-10T03:08:17.964Z,797.97
2023-10-10T03:10:55.251Z,803.58
2023-10-10T03:13:43.656Z,807.63
2023-10-10T03:16:42.769Z,777.60
2023-10-10T03:19:30.074Z,781.45
2023-10-10T03:22:12.403Z,769.38
2023-10-10T03:25:05.673Z,782.10
2023-10-10T03:27:51.526Z,798.85
2023-10-10T03:30:21.563Z,786.70
2023-10-10T03:33:09.382Z,815.92
2023-10-10T03:36:02.150Z,826.95
2023-10-10T03:38:59.072Z,844.08
2023-10-10T03:41:45.153Z,855.63
2023-10-10T03:44:32.717Z,872.72
2023-10-10T03:47:18.901Z,837.58
2023-10-10T03:50:05.139Z,840.67
2023-10-10T03:52:51.375Z,863.75
2023-10-10T03:55:37.352Z,864.45
2023-10-10T03:58:23.593Z,885.28
2023-10-10T04:01:14.816Z,860.80
2023-10-10T04:07:00.832Z,879.50
2023-10-10T04:09:48.374Z,876.35
2023-10-10T04:12:34.241Z,902.00
2023-10-10T04:15:20.393Z,886.63
2023-10-10T04:18:07.645Z,899.55
2023-10-10T04:20:55.766Z,926.92
2023-10-10T04:23:41.776Z,911.67
2023-10-10T04:26:27.669Z,927.10
2023-10-10T04:29:13.461Z,939.75
2023-10-10T04:32:07.964Z,933.78
2023-10-10T04:35:00.786Z,956.95
2023-10-10T04:37:46.229Z,967.90
2023-10-10T04:40:32.407Z,970.97
2023-10-10T04:43:18.080Z,948.33
2023-10-10T04:46:03.996Z,977.67
2023-10-10T04:48:50.005Z,996.25
2023-10-10T04:51:39.053Z,953.45
2023-10-10T04:54:27.673Z,930.03
2023-10-10T04:57:14.094Z,908.67
2023-10-10T05:00:00.090Z,909.40
2023-10-10T05:02:46.132Z,927.22
2023-10-10T05:05:32.196Z,959.08
2023-10-10T05:08:19.410Z,973.88
2023-10-10T05:11:05.403Z,927.75
2023-10-10T05:13:51.387Z,970.72
2023-10-10T05:16:37.313Z,957.83
2023-10-10T05:19:23.438Z,982.58
2023-10-10T05:22:09.508Z,951.25
2023-10-10T05:24:44.380Z,951.97
2023-10-10T05:27:13.303Z,915.20
2023-10-10T05:29:44.490Z,914.28
2023-10-10T05:32:13.376Z,903.50
2023-10-10T05:34:43.358Z,984.83
2023-10-10T05:37:11.957Z,1010.88
2023-10-10T05:39:42.364Z,921.95
2023-10-10T05:42:14.896Z,950.55
2023-10-10T05:44:45.268Z,898.92
2023-10-10T05:47:14.001Z,927.25
2023-10-10T05:49:42.913Z,1028.78
2023-10-10T05:52:11.619Z,934.42
2023-10-10T05:54:41.907Z,964.47
2023-10-10T05:57:12.177Z,958.92
2023-10-10T05:59:40.790Z,960.08
2023-10-10T06:02:12.516Z,946.38
2023-10-10T06:04:45.304Z,965.90
2023-10-10T06:07:14.171Z,978.40
2023-10-10T06:09:44.512Z,964.05
2023-10-10T06:12:16.830Z,949.15
2023-10-10T06:14:47.587Z,934.75
2023-10-10T06:17:16.410Z,981.13
2023-10-10T06:19:46.864Z,943.28
2023-10-10T06:22:16.510Z,984.78
2023-10-10T06:24:47.244Z,960.00
2023-10-10T06:27:15.934Z,970.67
2023-10-10T06:29:44.911Z,933.85
2023-10-10T06:32:17.257Z,965.45
2023-10-10T06:34:50.943Z,972.28
2023-10-10T06:37:19.886Z,885.40
2023-10-10T06:39:56.187Z,898.05
2023-10-10T06:42:29.508Z,949.38
2023-10-10T06:45:08.600Z,949.25
2023-10-10T06:47:40.763Z,937.92
2023-10-10T06:50:12.560Z,945.85
2023-10-10T06:52:45.253Z,918.15
2023-10-10T06:55:22.365Z,908.97
2023-10-10T06:57:59.201Z,910.25
2023-10-10T07:00:41.714Z,877.40
2023-10-10T07:03:10.751Z,911.25
2023-10-10T07:05:40.880Z,921.45
2023-10-10T07:08:20.804Z,901.67
2023-10-10T07:10:50.717Z,895.50
2023-10-10T07:13:20.416Z,897.10
2023-10-10T07:15:53.562Z,914.55
2023-10-10T07:18:25.363Z,951.70
2023-10-10T07:21:27.436Z,1035.35
2023-10-10T07:24:04.425Z,941.88
2023-10-10T07:26:42.626Z,978.83
2023-10-10T07:29:50.103Z,966.95
2023-10-10T07:32:20.747Z,969.05
2023-10-10T07:34:51.717Z,1041.72
2023-10-10T07:37:21.588Z,1031.93
2023-10-10T07:40:09.363Z,1019.33
2023-10-10T07:42:39.759Z,1020.88
2023-10-10T07:45:15.443Z,969.83
2023-10-10T07:47:58.622Z,1009.35
2023-10-10T07:50:28.243Z,997.55
2023-10-10T07:52:57.145Z,1004.20
2023-10-10T07:55:53.787Z,1001.90
2023-10-10T07:58:34.073Z,925.60
2023-10-10T08:01:11.069Z,1065.97
2023-10-10T08:03:45.661Z,1002.05
2023-10-10T08:06:18.409Z,993.03
2023-10-10T08:08:50.105Z,1080.40
2023-10-10T08:11:28.915Z,1074.50
2023-10-10T08:14:01.089Z,1094.93
2023-10-10T08:16:31.422Z,1027.72
2023-10-10T08:19:06.072Z,1023.63
2023-10-10T08:21:42.346Z,1006.78
2023-10-10T08:24:13.517Z,1088.30
2023-10-10T08:26:42.320Z,1045.60
2023-10-10T08:29:13.909Z,1102.32
2023-10-10T08:31:45.162Z,1028.57
2023-10-10T08:34:14.775Z,970.17
2023-10-10T08:36:45.490Z,1015.53
2023-10-10T08:39:26.731Z,1020.15
2023-10-10T08:41:57.291Z,1015.97
2023-10-10T08:44:30.763Z,1084.50
2023-10-10T08:47:03.023Z,1001.60
2023-10-10T08:49:34.292Z,1047.88
2023-10-10T08:52:04.448Z,1019.42
2023-10-10T08:54:33.728Z,1020.97
2023-10-10T08:57:11.479Z,1015.45
2023-10-10T08:59:43.702Z,997.92
2023-10-10T09:02:17.533Z,999.13
2023-10-10T09:04:55.903Z,1056.07
2023-10-10T09:07:29.425Z,1037.88
2023-10-10T09:10:06.296Z,1032.93
2023-10-10T09:12:54.156Z,1018.90
2023-10-10T09:15:25.579Z,1001.90
2023-10-10T09:17:57.281Z,1014.88
2023-10-10T09:20:29.855Z,1005.15
2023-10-10T09:23:05.864Z,1008.53
2023-10-10T09:25:42.835Z,1032.88
2023-10-10T09:34:30.838Z,1000.03
2023-10-10T09:37:17.179Z,1000.58
2023-10-10T09:42:55.251Z,1066.07
2023-10-10T09:45:37.188Z,945.72
2023-10-10T09:48:08.211Z,1020.25
2023-10-10T09:50:39.289Z,970.03
2023-10-10T09:53:21.195Z,992.72
2023-10-10T09:55:55.163Z,914.55
2023-10-10T09:58:28.589Z,1041.40
2023-10-10T10:01:15.534Z,970.47
2023-10-10T10:03:56.401Z,929.58
2023-10-10T10:07:07.529Z,943.90
2023-10-10T10:10:00.935Z,956.47
2023-10-10T10:12:42.429Z,953.38
2023-10-10T10:15:29.760Z,941.75
2023-10-10T10:18:13.224Z,950.20
2023-10-10T10:20:48.408Z,870.10
2023-10-10T10:23:26.702Z,934.80
2023-10-10T10:26:05.781Z,979.72
2023-10-10T10:28:38.184Z,928.22
2023-10-10T10:31:10.300Z,933.90
2023-10-10T10:33:54.191Z,955.72
2023-10-10T10:36:29.287Z,918.47
2023-10-10T10:39:16.380Z,1015.45
2023-10-10T10:42:01.422Z,961.72
2023-10-10T10:45:08.480Z,923.28
2023-10-10T10:48:03.696Z,920.83
2023-10-10T10:51:42.812Z,921.60
2023-10-10T10:54:36.526Z,942.78
2023-10-10T10:57:43.561Z,931.65
2023-10-10T11:00:57.081Z,989.75
2023-10-10T11:03:34.269Z,1033.15
2023-10-10T11:06:09.615Z,910.67
2023-10-10T11:11:40.817Z,906.28
2023-10-10T11:14:20.554Z,923.95
2023-10-10T11:16:57.558Z,910.45
2023-10-10T11:19:42.394Z,920.60
2023-10-10T11:22:35.586Z,914.58
2023-10-10T11:25:06.950Z,910.58
2023-10-10T11:27:45.074Z,936.53
2023-10-10T11:30:20.687Z,954.20
2023-10-10T11:32:49.911Z,906.70
2023-10-10T11:35:27.550Z,927.45
2023-10-10T11:38:07.621Z,912.80
2023-10-10T11:40:37.726Z,912.88
2023-10-10T11:43:12.536Z,911.70
2023-10-10T11:45:43.086Z,915.67
2023-10-10T11:48:16.900Z,920.70
2023-10-10T11:53:20.516Z,927.30
2023-10-10T11:55:49.711Z,921.92
2023-10-10T11:58:27.515Z,948.08
2023-10-10T12:01:07.104Z,937.45
2023-10-10T12:03:44.249Z,926.05
2023-10-10T12:06:18.648Z,977.22
2023-10-10T12:08:49.760Z,944.83
2023-10-10T12:11:21.492Z,942.67
2023-10-10T12:13:53.615Z,917.33
2023-10-10T12:16:25.843Z,943.35
2023-10-10T12:18:56.228Z,996.60
2023-10-10T12:21:26.961Z,941.03
2023-10-10T12:24:02.220Z,1003.15
2023-10-10T12:26:32.321Z,930.40
2023-10-10T12:29:07.609Z,930.75
2023-10-10T12:31:37.564Z,935.17
2023-10-10T12:34:12.954Z,941.92
2023-10-10T12:36:42.025Z,947.03
2023-10-10T12:39:16.369Z,966.88
2023-10-10T12:41:48.595Z,994.45
2023-10-10T12:44:18.852Z,979.53
2023-10-10T12:46:47.674Z,953.83
2023-10-10T12:49:18.411Z,948.72
2023-10-10T12:51:47.407Z,948.53
2023-10-10T12:54:21.682Z,952.53
2023-10-10T12:56:59.949Z,946.78
2023-10-10T12:59:34.662Z,949.65
2023-10-10T13:02:05.238Z,954.13
2023-10-10T13:04:34.209Z,999.75
2023-10-10T13:07:05.504Z,958.80
2023-10-10T13:09:38.316Z,953.70
2023-10-10T13:12:07.901Z,959.58
2023-10-10T13:14:44.910Z,952.85
2023-10-10T13:17:30.599Z,951.95
2023-10-10T13:20:04.131Z,1033.20
2023-10-10T13:22:32.788Z,1039.47
2023-10-10T13:25:01.401Z,970.30
2023-10-10T13:27:29.928Z,975.67
2023-10-10T13:29:59.781Z,954.90
2023-10-10T13:32:29.504Z,960.78
2023-10-10T13:34:58.137Z,967.50
2023-10-10T13:37:26.860Z,967.10
2023-10-10T13:39:56.765Z,966.90
2023-10-10T13:42:25.373Z,972.50
2023-10-10T13:45:11.072Z,976.50
2023-10-10T13:47:41.936Z,957.90
2023-10-10T13:50:32.393Z,977.53
2023-10-10T13:53:02.134Z,956.92
2023-10-10T13:55:35.692Z,974.25
2023-10-10T13:58:05.778Z,1013.20
2023-10-10T14:00:37.866Z,964.65
2023-10-10T14:03:08.404Z,956.60
2023-10-10T14:05:39.032Z,945.50
2023-10-10T14:08:10.784Z,1026.75
2023-10-10T14:10:41.629Z,972.72
2023-10-10T14:13:22.156Z,991.67
2023-10-10T14:15:57.774Z,1002.28
2023-10-10T14:18:30.012Z,960.25
2023-10-10T14:21:02.494Z,967.67
2023-10-10T14:23:36.667Z,981.25
2023-10-10T14:26:14.065Z,961.47
2023-10-10T14:28:49.769Z,950.97
2023-10-10T14:33:49.279Z,998.38
2023-10-10T14:36:18.047Z,972.08
2023-10-10T14:38:47.472Z,961.05
2023-10-10T14:41:18.867Z,984.22
2023-10-10T14:43:49.362Z,1008.42
2023-10-10T14:46:23.515Z,951.28
2023-10-10T14:49:01.904Z,1058.05
2023-10-10T14:51:34.959Z,943.55
2023-10-10T14:54:08.497Z,947.88
2023-10-10T14:56:39.241Z,951.43
2023-10-10T14:59:11.550Z,947.33
2023-10-10T15:01:42.460Z,968.17
2023-10-10T15:04:14.283Z,988.85
2023-10-10T15:06:44.384Z,943.17
2023-10-10T15:09:21.617Z,1012.90
2023-10-10T15:11:50.449Z,954.03
2023-10-10T15:14:20.799Z,989.35
2023-10-10T15:16:50.504Z,940.83
2023-10-10T15:19:21.264Z,939.85
2023-10-10T15:21:52.245Z,983.00
2023-10-10T15:24:24.623Z,967.15
2023-10-10T15:26:56.197Z,930.95
2023-10-10T15:29:28.197Z,951.92
2023-10-10T15:31:58.327Z,944.08
2023-10-10T15:34:32.252Z,947.58
2023-10-10T15:37:02.256Z,944.78
2023-10-10T15:39:31.380Z,961.33
2023-10-10T15:42:02.470Z,928.35
2023-10-10T15:44:32.206Z,935.80
2023-10-10T15:47:01.266Z,947.85
2023-10-10T15:49:36.251Z,1005.47
2023-10-10T15:52:07.811Z,937.72
2023-10-10T15:54:37.261Z,1047.30
2023-10-10T15:57:10.466Z,943.47
2023-10-10T15:59:43.916Z,986.85
2023-10-10T16:02:15.556Z,970.28
2023-10-10T16:04:46.493Z,992.30
2023-10-10T16:07:18.146Z,965.45
2023-10-10T16:09:47.299Z,1000.53
2023-10-10T16:12:16.447Z,1072.35
2023-10-10T16:14:45.485Z,1042.95
2023-10-10T16:17:20.687Z,1109.47
2023-10-10T16:19:51.736Z,1083.15
2023-10-10T16:22:20.562Z,1042.32
2023-10-10T16:24:54.020Z,1054.88
2023-10-10T16:27:23.022Z,1050.85
2023-10-10T16:29:56.863Z,1040.53
2023-10-10T16:32:26.109Z,1031.70
2023-10-10T16:34:58.359Z,979.95
2023-10-10T16:37:27.130Z,996.65
2023-10-10T16:39:55.861Z,989.60
2023-10-10T16:42:24.798Z,945.55
2023-10-10T16:44:54.697Z,925.53
2023-10-10T16:47:23.738Z,945.10
2023-10-10T16:49:52.488Z,916.92
2023-10-10T16:52:27.296Z,915.53
2023-10-10T16:54:58.120Z,965.83
2023-10-10T16:57:26.793Z,958.10
2023-10-10T16:59:57.853Z,1032.55
2023-10-10T17:02:29.987Z,941.90
2023-10-10T17:05:02.142Z,956.25
2023-10-10T17:07:32.621Z,961.40
2023-10-10T17:10:06.426Z,953.67
2023-10-10T17:12:35.156Z,961.15
2023-10-10T17:15:06.211Z,955.78
2023-10-10T17:17:36.988Z,912.38
2023-10-10T17:20:06.736Z,939.25
2023-10-10T17:22:37.379Z,956.03
2023-10-10T17:25:09.445Z,957.28
2023-10-10T17:27:38.427Z,951.00
2023-10-10T17:30:09.549Z,953.17
2023-10-10T17:32:41.250Z,956.63
2023-10-10T17:35:11.628Z,966.88
2023-10-10T17:37:41.545Z,958.17
2023-10-10T17:40:14.510Z,934.47
2023-10-10T17:42:48.477Z,951.97
2023-10-10T17:45:18.387Z,958.22
2023-10-10T17:47:47.076Z,956.50
2023-10-10T17:50:18.650Z,982.55
2023-10-10T17:52:48.843Z,953.42
2023-10-10T17:55:17.805Z,954.20
2023-10-10T17:57:46.373Z,1011.17
2023-10-10T18:00:16.027Z,930.42
2023-10-10T18:02:47.684Z,928.95
2023-10-10T18:05:16.851Z,993.13
2023-10-10T18:07:47.745Z,969.53
2023-10-10T18:10:17.457Z,925.42
2023-10-10T18:12:46.057Z,909.60
2023-10-10T18:15:19.773Z,925.75
2023-10-10T18:17:48.890Z,962.05
2023-10-10T18:22:55.028Z,930.20
2023-10-10T18:25:27.123Z,948.83
2023-10-10T18:27:55.715Z,921.42
2023-10-10T18:30:24.334Z,970.33
2023-10-10T18:32:53.299Z,930.38
2023-10-10T18:35:28.275Z,948.90
2023-10-10T18:37:58.460Z,968.35
2023-10-10T18:40:27.033Z,966.50
2023-10-10T18:42:55.625Z,968.47
2023-10-10T18:45:24.519Z,981.40
2023-10-10T18:47:53.200Z,931.83
2023-10-10T18:50:22.998Z,957.50
2023-10-10T18:52:52.169Z,939.53
2023-10-10T18:55:26.233Z,937.92
2023-10-10T18:57:57.607Z,949.78
2023-10-10T19:00:28.134Z,955.90
2023-10-10T19:02:58.903Z,979.55
2023-10-10T19:05:28.471Z,947.45
2023-10-10T19:07:58.104Z,950.60
2023-10-10T19:10:29.185Z,953.75
2023-10-10T19:12:58.979Z,958.28
2023-10-10T19:15:27.788Z,989.50
2023-10-10T19:18:00.569Z,936.47
2023-10-10T19:20:34.234Z,938.35
2023-10-10T19:23:05.896Z,905.87
2023-10-10T19:25:36.295Z,925.38
2023-10-10T19:28:05.788Z,907.42
2023-10-10T19:30:34.920Z,955.40
2023-10-10T19:33:05.730Z,918.92
2023-10-10T19:35:36.678Z,930.30
2023-10-10T19:38:06.068Z,941.60
2023-10-10T19:40:36.151Z,933.92
2023-10-10T19:43:05.018Z,936.22
2023-10-10T19:45:35.630Z,919.92
2023-10-10T19:48:05.914Z,891.58
2023-10-10T19:50:40.351Z,929.92
2023-10-10T19:55:42.334Z,929.53
2023-10-10T19:58:11.580Z,930.75
2023-10-10T20:00:43.624Z,954.97
2023-10-10T20:03:14.241Z,934.55
2023-10-10T20:05:43.831Z,897.03
2023-10-10T20:08:14.464Z,960.90
2023-10-10T20:10:49.701Z,949.30
2023-10-10T20:13:19.293Z,954.25
2023-10-10T20:15:47.874Z,950.65
2023-10-10T20:18:18.427Z,927.45
2023-10-10T20:20:49.683Z,937.70
2023-10-10T20:23:18.359Z,948.17
2023-10-10T20:25:52.454Z,932.38
2023-10-10T20:28:21.309Z,966.20
2023-10-10T20:30:49.946Z,913.15
2023-10-10T20:33:19.686Z,919.22
2023-10-10T20:35:48.508Z,931.05
2023-10-10T20:38:21.078Z,934.92
2023-10-10T20:40:51.649Z,950.78
2023-10-10T20:43:22.380Z,985.50
2023-10-10T20:45:51.498Z,1007.17
2023-10-10T20:48:23.550Z,1003.58
2023-10-10T20:50:52.436Z,1008.70
2023-10-10T20:53:21.845Z,1017.47
2023-10-10T20:55:51.982Z,1019.55
2023-10-10T20:58:20.491Z,1002.38
2023-10-10T21:00:50.118Z,1016.20
2023-10-10T21:03:19.101Z,1015.40
2023-10-10T21:05:48.847Z,1021.65
2023-10-10T21:08:18.492Z,1015.88
2023-10-10T21:10:47.418Z,1001.58
2023-10-10T21:13:17.356Z,1028.75
2023-10-10T21:15:45.919Z,1019.67
2023-10-10T21:18:14.572Z,1012.25
2023-10-10T21:20:56.813Z,1029.68
2023-10-10T21:23:29.485Z,1024.72
2023-10-10T21:25:58.130Z,1019.00
2023-10-10T21:28:28.487Z,1016.60
2023-10-10T21:30:57.085Z,1024.03
2023-10-10T21:33:26.917Z,1021.70
2023-10-10T21:35:55.627Z,1004.10
2023-10-10T21:38:24.451Z,1016.22
2023-10-10T21:40:53.068Z,1012.05
2023-10-10T21:43:21.727Z,1016.95
2023-10-10T21:45:51.633Z,1009.22
2023-10-10T21:48:20.346Z,983.45
2023-10-10T21:50:49.376Z,1029.28
2023-10-10T21:53:19.955Z,1042.50
2023-10-10T21:55:50.239Z,1001.38
2023-10-10T21:58:18.827Z,1014.75
2023-10-10T22:00:56.405Z,978.70
2023-10-10T22:03:28.827Z,1020.13
2023-10-10T22:05:58.036Z,1022.25
2023-10-10T22:08:27.722Z,1034.78
2023-10-10T22:10:59.205Z,1007.05
2023-10-10T22:13:29.043Z,1016.50
2023-10-10T22:15:57.584Z,1007.15
2023-10-10T22:18:31.303Z,1028.10
2023-10-10T22:21:00.780Z,991.08
2023-10-10T22:23:29.579Z,1021.40
2023-10-10T22:26:01.465Z,1003.03
2023-10-10T22:28:30.255Z,1016.58
2023-10-10T22:31:00.552Z,991.38
2023-10-10T22:33:31.193Z,1017.03
2023-10-10T22:36:02.035Z,999.83
2023-10-10T22:38:30.654Z,1002.83
2023-10-10T22:40:59.268Z,1007.65
2023-10-10T22:43:28.889Z,985.45
2023-10-10T22:45:57.309Z,1031.75
2023-10-10T22:48:25.947Z,1009.30
2023-10-10T22:50:58.186Z,1024.55
2023-10-10T22:53:26.698Z,1011.58
2023-10-10T22:55:55.240Z,1017.00
2023-10-10T22:58:25.350Z,1018.97
2023-10-10T23:00:57.581Z,995.28
2023-10-10T23:03:27.784Z,1013.67
2023-10-10T23:05:57.933Z,1005.33
2023-10-10T23:08:26.580Z,1018.15
2023-10-10T23:10:55.116Z,1016.38
2023-10-10T23:13:23.730Z,1026.47
2023-10-10T23:15:52.350Z,1055.03
2023-10-10T23:18:20.961Z,1021.60
2023-10-10T23:20:53.082Z,1023.90
2023-10-10T23:23:23.164Z,999.25
2023-10-10T23:25:52.413Z,1023.17
2023-10-10T23:28:21.036Z,1004.58
2023-10-10T23:30:49.687Z,1008.75
2023-10-10T23:33:18.341Z,1013.28
2023-10-10T23:35:50.752Z,1006.35
2023-10-10T23:38:20.630Z,974.15
2023-10-10T23:40:50.598Z,986.35
2023-10-10T23:43:21.866Z,955.65
2023-10-10T23:45:55.915Z,948.80
2023-10-10T23:50:59.195Z,941.05
2023-10-10T23:53:27.844Z,945.13
2023-10-10T23:56:00.218Z,946.08
2023-10-10T23:58:30.778Z,940.67
